Terminal Aerodrome Forecast
Issued by NWS

Home | Current Version | Previous Version | Text Only | Print | Product List | Glossary On
Versions: 1 2 3 4 5 6 7 8 9 10 11 12 13 14 15 16 17
000
FTAK31 PAFA 250525
TAFATA
TAF
PATA 250525Z 2506/2606 29005KT P6SM FEW015 BKN030 OVC050
     FM251000 10004KT 6SM BR VCSH BKN020 OVC035
     FM251600 14004KT 6SM -SHRA BR SCT020 OVC035
     FM260300 30004KT P6SM VCSH SCT035 BKN060 OVC100=

USA.gov is the U.S. government's official web portal to all federal, state and local government web resources and services.